Terminal Aerodrome Forecast
Issued by NWS

Current Version | Previous Version | Graphics & Text | Print | Product List | Glossary On
Versions: 1 2 3 4 5 6 7 8 9 10 11 12 13 14 15 16 17 18 19 20 21 22 23 24 25
732
FTUS41 KRLX 291845 AAA
TAFCKB
TAF AMD
KCKB 291845Z 2919/3018 13009G18KT P6SM BKN035 OVC050
     FM292100 10009KT 2SM SHRA VCTS SCT015 BKN030CB
     FM300200 09009KT 3SM -SHRA BR SCT008 BKN015=

USA.gov is the U.S. government's official web portal to all federal, state and local government web resources and services.